Time;durP1;ratioP1;P1;durP2;ratioP2;P2;SDS_P1;SDS_P2;PMS_P1;PMS_P2;Temp;Humidity;BMP_temperature;BMP_pressure;BME280_temperature;BME280_humidity;BME280_pressure;Samples;Min_cycle;Max_cycle;Signal;HPM_P1;HPM_P2
2024/01/09 00:00:45;;;;;;;0.30;0.20;;;;;;;7.55;100.00;94891.88;5133163;27;20438;-54
2024/01/09 00:03:15;;;;;;;0.30;0.30;;;;;;;7.27;100.00;94840.41;5132908;27;20485;-54
2024/01/09 00:05:44;;;;;;;0.40;0.30;;;;;;;7.59;100.00;94879.75;5133237;27;20435;-54
2024/01/09 00:08:13;;;;;;;0.60;0.60;;;;;;;7.73;100.00;94885.34;5133182;27;20435;-53
2024/01/09 00:10:41;;;;;;;0.33;0.20;;;;;;;6.81;100.00;94767.56;5133464;27;20549;-54
2024/01/09 00:13:10;;;;;;;0.40;0.30;;;;;;;7.27;100.00;94845.69;5133354;27;20775;-54
2024/01/09 00:15:39;;;;;;;0.40;0.23;;;;;;;7.49;100.00;94893.72;5133575;27;20998;-54
2024/01/09 00:18:07;;;;;;;0.60;0.40;;;;;;;7.55;100.00;94890.06;5132697;27;20495;-54
2024/01/09 00:20:38;;;;;;;0.50;0.40;;;;;;;7.06;100.00;94825.59;5133252;27;20495;-54
2024/01/09 00:23:06;;;;;;;0.33;0.30;;;;;;;7.59;100.00;94890.31;5106164;27;20473;-54
2024/01/09 00:25:35;;;;;;;0.40;0.30;;;;;;;7.75;100.00;94904.31;5132553;27;20882;-54
2024/01/09 00:28:04;;;;;;;0.40;0.30;;;;;;;7.57;100.00;94893.22;5133451;27;20484;-54
2024/01/09 00:30:33;;;;;;;0.83;0.83;;;;;;;7.41;100.00;94909.25;5132531;27;20434;-53
2024/01/09 00:33:01;;;;;;;0.73;0.73;;;;;;;7.69;100.00;94906.16;5132843;27;20495;-53
2024/01/09 00:35:30;;;;;;;0.60;0.53;;;;;;;7.58;100.00;94908.00;5132944;27;20446;-54
2024/01/09 00:38:00;;;;;;;2.27;0.60;;;;;;;7.61;100.00;94899.53;5132767;27;20458;-54
2024/01/09 00:40:29;;;;;;;2.73;0.97;;;;;;;7.46;100.00;94899.50;5131386;27;20470;-53
2024/01/09 00:42:57;;;;;;;1.00;0.50;;;;;;;7.07;100.00;94850.88;5132403;27;20476;-53
2024/01/09 00:45:44;;;;;;;0.47;0.40;;;;;;;7.40;100.00;94900.56;5132882;27;20434;-53
2024/01/09 00:48:13;;;;;;;0.30;0.30;;;;;;;7.62;100.00;94902.97;5132358;27;20436;-53
2024/01/09 00:50:42;;;;;;;0.40;0.30;;;;;;;7.72;100.00;94878.47;5131979;27;20446;-53
2024/01/09 00:53:13;;;;;;;0.40;0.40;;;;;;;7.69;100.00;94903.50;5132096;27;20531;-54
2024/01/09 00:55:42;;;;;;;0.50;0.50;;;;;;;7.69;100.00;94893.75;5132730;27;20438;-54
2024/01/09 00:58:11;;;;;;;0.30;0.30;;;;;;;7.68;100.00;94900.09;5118743;27;20438;-53
2024/01/09 01:00:39;;;;;;;0.30;0.20;;;;;;;7.58;100.00;94904.56;5132617;27;20474;-53
2024/01/09 01:03:08;;;;;;;0.50;0.33;;;;;;;7.64;100.00;94900.88;5131808;27;20470;-54
2024/01/09 01:05:36;;;;;;;1.53;0.33;;;;;;;7.62;100.00;94895.06;5131264;27;20434;-54
2024/01/09 01:08:06;;;;;;;0.30;0.27;;;;;;;7.33;100.00;94889.47;5132981;27;20430;-53
2024/01/09 01:10:36;;;;;;;0.30;0.20;;;;;;;7.40;100.00;94894.50;5132660;27;20934;-53
2024/01/09 01:13:05;;;;;;;0.43;0.30;;;;;;;7.31;100.00;94888.91;5131862;27;20472;-53
2024/01/09 01:15:33;;;;;;;0.53;0.50;;;;;;;7.34;100.00;94887.59;5132357;27;20431;-54
2024/01/09 01:18:02;;;;;;;0.70;0.70;;;;;;;7.17;100.00;94882.56;5132203;27;20476;-53
2024/01/09 01:20:31;;;;;;;0.40;0.30;;;;;;;7.33;100.00;94889.47;5132409;27;20973;-53
2024/01/09 01:23:00;;;;;;;0.60;0.40;;;;;;;7.30;100.00;94889.97;5131890;27;20466;-53
2024/01/09 01:25:29;;;;;;;0.50;0.50;;;;;;;7.52;100.00;94882.66;5132352;28;20439;-54
2024/01/09 01:27:59;;;;;;;0.30;0.20;;;;;;;7.37;100.00;94887.88;5105417;28;20813;-53
2024/01/09 01:30:28;;;;;;;0.97;0.50;;;;;;;7.45;100.00;94882.13;5131871;27;20958;-53
2024/01/09 01:32:56;;;;;;;0.40;0.40;;;;;;;7.63;100.00;94873.72;5132221;28;20962;-54
2024/01/09 01:35:25;;;;;;;0.40;0.30;;;;;;;7.73;100.00;94877.41;5132013;28;20501;-54
2024/01/09 01:37:54;;;;;;;0.40;0.40;;;;;;;7.30;100.00;94829.34;5132286;28;20889;-54
2024/01/09 01:40:22;;;;;;;0.40;0.30;;;;;;;7.76;100.00;94876.91;5118356;27;20435;-54
2024/01/09 01:42:51;;;;;;;1.50;0.30;;;;;;;7.58;100.00;94879.00;5132180;27;20474;-54
2024/01/09 01:45:24;;;;;;;0.50;0.40;;;;;;;7.65;100.00;94865.53;5131373;28;20526;-54
2024/01/09 01:47:53;;;;;;;0.90;0.50;;;;;;;8.10;100.00;94870.06;5131927;27;20434;-54
2024/01/09 01:50:22;;;;;;;0.30;0.20;;;;;;;7.97;100.00;94860.03;5131416;28;20477;-54
2024/01/09 01:52:52;;;;;;;0.40;0.40;;;;;;;7.80;100.00;94814.63;5131085;28;20465;-54
2024/01/09 01:55:25;;;;;;;1.37;0.57;;;;;;;6.97;100.00;94687.53;5131218;27;20872;-54
2024/01/09 01:57:56;;;;;;;0.30;0.20;;;;;;;7.83;100.00;94853.69;5131735;28;20435;-54
2024/01/09 02:00:28;;;;;;;0.50;0.30;;;;;;;7.83;100.00;94858.97;5131491;28;20836;-54
2024/01/09 02:02:57;;;;;;;0.40;0.30;;;;;;;7.97;100.00;94865.31;5132176;27;21008;-54
2024/01/09 02:05:28;;;;;;;0.40;0.30;;;;;;;8.04;100.00;94860.56;5105494;28;20430;-54
2024/01/09 02:07:58;;;;;;;0.37;0.27;;;;;;;7.61;100.00;94836.25;5132011;28;20438;-54
2024/01/09 02:10:27;;;;;;;0.40;0.30;;;;;;;7.25;100.00;94784.53;5131263;28;20495;-54
2024/01/09 02:12:55;;;;;;;0.37;0.30;;;;;;;7.67;100.00;94853.69;5131720;28;20475;-54
2024/01/09 02:15:24;;;;;;;0.30;0.30;;;;;;;7.16;100.00;94804.53;5132822;27;20843;-54
2024/01/09 02:17:54;;;;;;;0.73;0.73;;;;;;;7.56;100.00;94857.34;5135154;27;20487;-54
2024/01/09 02:20:23;;;;;;;0.60;0.60;;;;;;;7.70;100.00;94849.72;5135906;27;20438;-54
2024/01/09 02:22:52;;;;;;;0.60;0.60;;;;;;;8.00;100.00;94851.56;5134681;27;20561;-54
2024/01/09 02:25:21;;;;;;;0.40;0.30;;;;;;;7.98;100.00;94851.06;5135591;27;21028;-54
2024/01/09 02:27:58;;;;;;;0.30;0.30;;;;;;;7.97;100.00;94850.25;5134773;27;20437;-54
2024/01/09 02:30:29;;;;;;;0.63;0.30;;;;;;;7.99;100.00;94848.19;5135232;27;20438;-54
2024/01/09 02:32:59;;;;;;;0.40;0.30;;;;;;;7.93;100.00;94856.34;5108131;27;20876;-54
2024/01/09 02:35:27;;;;;;;0.30;0.20;;;;;;;8.07;100.00;94857.41;5135203;27;20950;-54
2024/01/09 02:37:56;;;;;;;2.33;1.33;;;;;;;7.71;100.00;94855.78;5135050;27;20435;-54
2024/01/09 02:40:25;;;;;;;0.40;0.30;;;;;;;7.82;100.00;94858.16;5121404;27;20986;-54
2024/01/09 02:42:53;;;;;;;0.30;0.20;;;;;;;7.74;100.00;94853.44;5134780;27;20473;-54
2024/01/09 02:45:23;;;;;;;0.30;0.20;;;;;;;7.68;100.00;94855.28;5134273;27;20949;-54
2024/01/09 02:47:53;;;;;;;0.30;0.20;;;;;;;7.82;100.00;94854.75;5134037;27;20980;-54
2024/01/09 02:50:22;;;;;;;0.40;0.20;;;;;;;7.91;100.00;94853.19;5133637;27;20435;-54
2024/01/09 02:52:51;;;;;;;0.40;0.20;;;;;;;8.18;100.00;94846.56;5133778;27;20867;-55
2024/01/09 02:55:19;;;;;;;0.40;0.30;;;;;;;8.20;100.00;94838.38;5134631;27;20593;-54
2024/01/09 02:57:48;;;;;;;0.30;0.20;;;;;;;8.01;100.00;94840.78;5135031;27;20441;-54
2024/01/09 03:00:17;;;;;;;0.60;0.57;;;;;;;7.75;100.00;94844.44;5134836;27;20468;-54
2024/01/09 03:02:46;;;;;;;0.40;0.30;;;;;;;7.53;100.00;94849.19;5134329;27;20431;-54
2024/01/09 03:05:16;;;;;;;0.40;0.30;;;;;;;7.54;100.00;94841.00;5134189;27;20434;-54
2024/01/09 03:07:45;;;;;;;0.40;0.30;;;;;;;7.68;100.00;94833.38;5134344;27;20443;-54
2024/01/09 03:10:14;;;;;;;0.70;0.20;;;;;;;7.69;100.00;94832.31;5108533;27;20946;-54
2024/01/09 03:12:44;;;;;;;0.30;0.20;;;;;;;7.89;100.00;94823.63;5134148;27;20477;-54
2024/01/09 03:15:13;;;;;;;0.30;0.20;;;;;;;7.46;100.00;94827.56;5134648;27;20442;-54
2024/01/09 03:17:41;;;;;;;0.37;0.30;;;;;;;7.36;100.00;94820.38;5134219;27;20438;-54
2024/01/09 03:20:11;;;;;;;0.50;0.40;;;;;;;7.48;100.00;94815.69;5134613;27;20443;-53
2024/01/09 03:22:41;;;;;;;0.30;0.20;;;;;;;7.60;100.00;94818.84;5133698;27;20456;-53
2024/01/09 03:25:10;;;;;;;0.40;0.30;;;;;;;7.11;100.00;94748.41;5134161;27;20441;-54
2024/01/09 03:27:38;;;;;;;0.40;0.30;;;;;;;7.50;100.00;94826.75;5133230;27;20442;-54
2024/01/09 03:30:08;;;;;;;0.30;0.20;;;;;;;7.40;100.00;94837.28;5133665;27;20443;-54
2024/01/09 03:32:37;;;;;;;0.73;0.33;;;;;;;7.36;100.00;94845.97;5133619;27;20942;-54
2024/01/09 03:35:06;;;;;;;0.30;0.20;;;;;;;7.39;100.00;94856.78;5134118;27;20896;-54
2024/01/09 03:37:35;;;;;;;0.40;0.30;;;;;;;7.54;100.00;94848.09;5133666;27;20430;-54
2024/01/09 03:40:05;;;;;;;0.30;0.30;;;;;;;7.36;100.00;94848.63;5133616;27;20521;-54
2024/01/09 03:42:34;;;;;;;0.40;0.30;;;;;;;7.21;100.00;94844.06;5107459;27;20434;-54
2024/01/09 03:45:03;;;;;;;0.40;0.30;;;;;;;7.28;100.00;94859.66;5133417;27;21021;-54
2024/01/09 03:47:31;;;;;;;0.30;0.20;;;;;;;7.30;100.00;94847.81;5133977;27;20430;-54
2024/01/09 03:50:18;;;;;;;0.30;0.30;;;;;;;7.53;100.00;94844.69;5133769;27;21001;-54
2024/01/09 03:52:48;;;;;;;1.77;0.57;;;;;;;7.49;100.00;94838.34;5132227;27;20522;-54
2024/01/09 03:55:18;;;;;;;0.50;0.40;;;;;;;7.57;100.00;94829.94;5133497;27;21067;-55
2024/01/09 03:57:46;;;;;;;0.30;0.20;;;;;;;7.66;100.00;94838.88;5133406;27;20434;-54
2024/01/09 04:00:16;;;;;;;0.30;0.20;;;;;;;7.50;100.00;94810.94;5133017;27;20430;-54
2024/01/09 04:02:45;;;;;;;0.30;0.20;;;;;;;7.08;100.00;94776.06;5132712;27;20446;-54
2024/01/09 04:05:12;;;;;;;0.30;0.20;;;;;;;7.49;100.00;94838.34;5133173;27;20469;-55
2024/01/09 04:07:41;;;;;;;0.30;0.20;;;;;;;7.49;100.00;94846.25;5133387;27;20922;-54
2024/01/09 04:10:10;;;;;;;0.30;0.27;;;;;;;7.44;100.00;94863.91;5106578;27;20951;-54
2024/01/09 04:12:40;;;;;;;0.40;0.20;;;;;;;7.52;100.00;94873.94;5133534;27;20544;-54
2024/01/09 04:15:09;;;;;;;0.37;0.23;;;;;;;7.09;100.00;94825.06;5132748;27;20446;-54
2024/01/09 04:17:38;;;;;;;0.30;0.20;;;;;;;7.00;100.00;94795.03;5133406;27;20502;-53
2024/01/09 04:20:08;;;;;;;0.30;0.20;;;;;;;6.98;100.00;94826.88;5132476;27;20434;-54
2024/01/09 04:22:37;;;;;;;0.50;0.30;;;;;;;7.11;100.00;94878.31;5131866;27;20479;-54
2024/01/09 04:25:06;;;;;;;0.40;0.20;;;;;;;6.99;100.00;94870.63;5133147;27;20473;-54
2024/01/09 04:27:34;;;;;;;0.50;0.20;;;;;;;7.07;100.00;94887.78;5133027;27;20442;-54
2024/01/09 04:30:06;;;;;;;0.90;0.40;;;;;;;7.06;100.00;94890.69;5132995;27;20960;-54
2024/01/09 04:32:35;;;;;;;0.30;0.20;;;;;;;7.13;100.00;94891.25;5133131;27;20442;-54
2024/01/09 04:35:04;;;;;;;0.40;0.40;;;;;;;6.93;100.00;94842.66;5132983;27;20435;-54
2024/01/09 04:37:32;;;;;;;0.30;0.20;;;;;;;7.16;99.84;94880.94;5132643;27;20435;-54
2024/01/09 04:40:01;;;;;;;0.30;0.20;;;;;;;7.27;100.00;94908.16;5132689;27;20435;-53
2024/01/09 04:42:30;;;;;;;0.30;0.20;;;;;;;7.20;98.52;94912.88;5132838;27;20434;-54
2024/01/09 04:44:58;;;;;;;0.40;0.27;;;;;;;7.20;98.03;94916.31;5132756;27;20474;-54
2024/01/09 04:47:29;;;;;;;0.50;0.50;;;;;;;7.01;99.61;94926.47;5132552;27;20460;-54
2024/01/09 04:49:57;;;;;;;0.53;0.53;;;;;;;7.09;99.59;94925.19;5132366;27;20470;-55
2024/01/09 04:52:26;;;;;;;0.30;0.20;;;;;;;7.11;100.00;94936.28;5118987;27;20458;-53
2024/01/09 04:54:55;;;;;;;0.30;0.20;;;;;;;6.92;99.73;94896.41;5131159;27;20525;-54
2024/01/09 04:57:24;;;;;;;0.43;0.43;;;;;;;7.31;98.99;94967.22;5131812;27;20461;-53
2024/01/09 04:59:53;;;;;;;0.63;0.63;;;;;;;7.37;100.00;94964.34;5132114;27;20441;-53
2024/01/09 05:02:21;;;;;;;0.50;0.30;;;;;;;7.38;100.00;94973.03;5132083;27;20803;-55
2024/01/09 05:04:52;;;;;;;0.30;0.20;;;;;;;7.37;98.32;94971.44;5131068;27;20557;-55
2024/01/09 05:07:20;;;;;;;1.07;0.30;;;;;;;7.26;96.38;94989.06;5132088;27;20799;-55
2024/01/09 05:09:49;;;;;;;0.40;0.30;;;;;;;7.20;98.62;94998.00;5131437;27;20446;-54
2024/01/09 05:12:17;;;;;;;0.50;0.50;;;;;;;7.47;94.97;94997.84;5131729;27;20431;-54
2024/01/09 05:14:46;;;;;;;0.70;0.70;;;;;;;7.69;93.08;95003.75;5132423;27;20442;-53
2024/01/09 05:17:15;;;;;;;0.40;0.30;;;;;;;8.00;90.42;95002.00;5132652;27;20885;-54
2024/01/09 05:19:44;;;;;;;0.50;0.50;;;;;;;7.99;89.26;95021.53;5131940;27;20442;-54
2024/01/09 05:22:14;;;;;;;0.40;0.30;;;;;;;7.94;87.74;95024.97;5132415;27;20445;-55
2024/01/09 05:24:43;;;;;;;0.40;0.30;;;;;;;7.67;88.78;95025.13;5130886;28;20481;-54
2024/01/09 05:27:11;;;;;;;0.30;0.30;;;;;;;7.72;89.21;95020.91;5132093;27;20434;-54
2024/01/09 05:29:40;;;;;;;0.50;0.30;;;;;;;7.04;89.26;94925.97;5131422;27;20434;-54
2024/01/09 05:32:08;;;;;;;0.50;0.50;;;;;;;7.87;88.10;95034.19;5131564;27;20513;-54
2024/01/09 05:34:37;;;;;;;0.40;0.30;;;;;;;7.67;88.99;95040.94;5131318;28;20495;-54
2024/01/09 05:37:06;;;;;;;0.40;0.33;;;;;;;7.50;89.89;95044.81;5128914;28;20988;-54
2024/01/09 05:39:36;;;;;;;0.50;0.50;;;;;;;7.54;92.75;95048.50;5132101;27;20817;-54
2024/01/09 05:42:05;;;;;;;0.40;0.30;;;;;;;7.48;89.48;95050.34;5131675;27;20437;-54
2024/01/09 05:44:34;;;;;;;0.50;0.40;;;;;;;7.55;89.21;95058.03;5131981;27;20474;-54
2024/01/09 05:47:03;;;;;;;0.83;0.50;;;;;;;7.32;90.11;95055.78;5131459;27;20444;-54
2024/01/09 05:49:32;;;;;;;0.30;0.20;;;;;;;7.13;88.90;95060.69;5132010;27;20442;-54
2024/01/09 05:52:00;;;;;;;0.40;0.30;;;;;;;6.84;90.59;95057.56;5134875;27;20545;-54
2024/01/09 05:54:29;;;;;;;0.53;0.53;;;;;;;6.81;93.05;95071.25;5136127;27;20466;-54
2024/01/09 05:56:59;;;;;;;0.50;0.40;;;;;;;6.83;93.02;95060.47;5136100;27;20445;-54
2024/01/09 05:59:28;;;;;;;0.70;0.40;;;;;;;7.00;92.07;95077.72;5136093;27;20431;-55
2024/01/09 06:01:57;;;;;;;2.13;0.57;;;;;;;6.57;90.62;95082.34;5136266;27;20438;-54
2024/01/09 06:04:25;;;;;;;0.40;0.30;;;;;;;6.81;92.96;95078.34;5136074;27;20505;-53
2024/01/09 06:06:54;;;;;;;0.53;0.53;;;;;;;6.82;90.49;95095.75;5136191;27;20438;-54
2024/01/09 06:09:22;;;;;;;0.30;0.20;;;;;;;6.77;89.89;95095.69;5135989;27;20974;-54
2024/01/09 06:11:51;;;;;;;0.30;0.30;;;;;;;6.22;92.81;95023.06;5136137;27;20494;-54
2024/01/09 06:14:21;;;;;;;0.30;0.20;;;;;;;6.74;93.93;95112.00;5135885;27;20445;-54
2024/01/09 06:16:49;;;;;;;0.90;0.63;;;;;;;6.96;92.75;95115.34;5135801;27;20470;-53
2024/01/09 06:19:18;;;;;;;0.30;0.20;;;;;;;7.12;91.15;95119.69;5135138;27;20474;-53
2024/01/09 06:21:47;;;;;;;0.53;0.40;;;;;;;6.83;89.00;95127.09;5135346;27;20507;-55
2024/01/09 06:24:16;;;;;;;0.50;0.50;;;;;;;6.98;88.49;95113.28;5135385;27;20513;-53
2024/01/09 06:26:45;;;;;;;0.60;0.60;;;;;;;6.76;87.86;95086.19;5135657;27;20857;-53
2024/01/09 06:29:14;;;;;;;2.10;0.57;;;;;;;7.00;90.18;95129.63;5135292;27;20498;-53
2024/01/09 06:31:44;;;;;;;2.00;0.40;;;;;;;6.71;83.15;95129.09;5134874;27;20481;-53
2024/01/09 06:34:12;;;;;;;0.40;0.20;;;;;;;6.95;88.50;95127.75;5135293;27;20461;-54
2024/01/09 06:36:45;;;;;;;0.47;0.40;;;;;;;6.72;83.45;95133.31;5135361;27;20529;-53
2024/01/09 06:39:14;;;;;;;3.33;0.50;;;;;;;6.52;83.90;95150.75;5135074;27;20985;-54
2024/01/09 06:41:42;;;;;;;0.60;0.50;;;;;;;6.59;84.64;95162.69;5135726;27;20438;-54
2024/01/09 06:44:11;;;;;;;0.40;0.40;;;;;;;6.83;84.06;95157.94;5108343;27;20447;-53
2024/01/09 06:46:40;;;;;;;0.40;0.30;;;;;;;6.88;82.78;95160.59;5134638;27;20470;-54
2024/01/09 06:49:10;;;;;;;0.30;0.20;;;;;;;6.69;82.34;95154.88;5108459;27;20466;-53
2024/01/09 06:51:39;;;;;;;0.30;0.20;;;;;;;6.94;83.73;95159.59;5134025;27;20471;-56
2024/01/09 06:54:07;;;;;;;0.67;0.67;;;;;;;6.70;84.10;95155.69;5135130;27;20517;-55
2024/01/09 06:56:36;;;;;;;0.40;0.30;;;;;;;6.75;85.29;95163.66;5134296;27;20438;-55
2024/01/09 06:59:04;;;;;;;0.30;0.20;;;;;;;6.72;84.23;95169.41;5134815;27;20470;-56
2024/01/09 07:01:36;;;;;;;1.33;0.40;;;;;;;6.58;82.93;95165.59;5134091;27;20435;-54
2024/01/09 07:04:06;;;;;;;0.43;0.43;;;;;;;6.77;87.20;95178.16;5133897;27;20466;-55
2024/01/09 07:06:36;;;;;;;0.50;0.50;;;;;;;6.85;82.78;95190.88;5133981;27;21005;-55
2024/01/09 07:09:05;;;;;;;1.00;0.83;;;;;;;6.36;81.81;95195.34;5135046;27;20435;-55
2024/01/09 07:11:33;;;;;;;0.67;0.67;;;;;;;6.57;83.33;95198.22;5133496;27;20442;-55
2024/01/09 07:14:02;;;;;;;0.83;0.30;;;;;;;6.08;82.52;95194.72;5134826;27;20473;-55
2024/01/09 07:16:37;;;;;;;3.90;0.37;;;;;;;6.54;84.67;95198.69;5134510;27;20445;-54
2024/01/09 07:19:07;;;;;;;0.30;0.20;;;;;;;6.50;82.61;95208.13;5134539;27;20442;-54
2024/01/09 07:21:37;;;;;;;0.40;0.30;;;;;;;6.39;80.73;95210.66;5134436;27;20447;-55
2024/01/09 07:24:06;;;;;;;0.30;0.30;;;;;;;6.23;80.86;95198.34;5134216;27;20442;-55
2024/01/09 07:26:39;;;;;;;0.50;0.30;;;;;;;6.16;80.56;95224.03;5133968;27;20480;-58
2024/01/09 07:29:08;;;;;;;0.53;0.30;;;;;;;6.34;81.16;95234.28;5134067;27;20798;-55
2024/01/09 07:31:37;;;;;;;0.37;0.30;;;;;;;6.22;77.66;95236.22;5134201;27;20529;-56
2024/01/09 07:34:05;;;;;;;0.30;0.20;;;;;;;6.31;78.16;95240.03;5133094;27;20443;-56
2024/01/09 07:36:34;;;;;;;0.70;0.70;;;;;;;6.47;77.66;95229.69;5133282;27;20438;-56
2024/01/09 07:39:05;;;;;;;0.30;0.27;;;;;;;6.49;78.05;95230.22;5133107;27;20510;-55
2024/01/09 07:41:34;;;;;;;0.40;0.30;;;;;;;6.23;76.01;95219.38;5133026;27;20445;-56
2024/01/09 07:44:03;;;;;;;0.53;0.53;;;;;;;6.30;76.04;95238.44;5132656;27;20968;-54
2024/01/09 07:46:32;;;;;;;0.40;0.30;;;;;;;6.37;78.60;95223.25;5133590;27;20565;-54
2024/01/09 07:49:01;;;;;;;0.30;0.20;;;;;;;5.94;75.57;95214.53;5133899;27;20434;-54
2024/01/09 07:51:29;;;;;;;0.63;0.63;;;;;;;6.31;77.32;95253.19;5134155;27;20438;-55
2024/01/09 07:53:58;;;;;;;0.50;0.50;;;;;;;6.40;75.64;95259.59;5133106;27;20481;-54
2024/01/09 07:56:28;;;;;;;0.30;0.20;;;;;;;6.43;74.27;95260.16;5134070;27;20816;-56
2024/01/09 07:58:57;;;;;;;0.40;0.30;;;;;;;6.49;75.76;95248.66;5133842;27;20466;-55
2024/01/09 08:01:27;;;;;;;0.40;0.30;;;;;;;6.58;76.42;95241.94;5133068;27;20472;-55
2024/01/09 08:03:56;;;;;;;0.30;0.20;;;;;;;6.48;74.24;95263.66;5133359;27;20437;-55
2024/01/09 08:06:24;;;;;;;0.30;0.30;;;;;;;6.69;72.96;95262.06;5133772;27;20486;-55
2024/01/09 08:08:53;;;;;;;1.07;0.30;;;;;;;6.52;72.90;95222.66;5133503;27;20465;-55
2024/01/09 08:11:22;;;;;;;0.30;0.20;;;;;;;6.59;74.53;95275.09;5133681;27;20431;-55
2024/01/09 08:13:52;;;;;;;0.30;0.20;;;;;;;6.50;75.23;95273.97;5133228;27;20442;-55
2024/01/09 08:16:20;;;;;;;0.37;0.27;;;;;;;6.14;74.18;95215.59;5132828;27;20445;-55
2024/01/09 08:18:49;;;;;;;0.60;0.60;;;;;;;6.69;76.47;95283.13;5133717;27;20434;-55
2024/01/09 08:21:18;;;;;;;0.40;0.27;;;;;;;6.78;74.60;95279.81;5133017;27;20509;-55
2024/01/09 08:23:46;;;;;;;5.00;0.27;;;;;;;6.35;72.32;95241.13;5133224;27;20530;-55
2024/01/09 08:26:15;;;;;;;0.40;0.20;;;;;;;6.58;74.07;95287.47;5132995;27;20485;-55
2024/01/09 08:28:44;;;;;;;0.30;0.20;;;;;;;6.60;72.52;95284.63;5133252;27;20479;-56
2024/01/09 08:31:14;;;;;;;0.57;0.47;;;;;;;6.76;74.13;95297.72;5132662;27;20438;-55
2024/01/09 08:33:42;;;;;;;1.40;0.40;;;;;;;6.29;73.15;95239.47;5132698;27;20481;-56
2024/01/09 08:36:11;;;;;;;0.30;0.20;;;;;;;6.68;71.73;95295.50;5133076;27;20442;-57
2024/01/09 08:38:40;;;;;;;0.30;0.20;;;;;;;6.80;71.19;95300.66;5133178;27;20438;-55
2024/01/09 08:41:10;;;;;;;0.30;0.20;;;;;;;6.72;71.18;95301.88;5133418;27;20487;-56
2024/01/09 08:43:40;;;;;;;0.50;0.33;;;;;;;6.77;71.85;95290.59;5132407;27;20442;-54
2024/01/09 08:46:09;;;;;;;0.70;0.50;;;;;;;6.72;70.83;95295.81;5132700;27;20910;-54
2024/01/09 08:48:39;;;;;;;0.30;0.20;;;;;;;6.70;69.71;95295.28;5132877;27;20440;-53
2024/01/09 08:51:08;;;;;;;0.30;0.20;;;;;;;7.07;70.49;95298.06;5132096;27;20441;-54
2024/01/09 08:53:45;;;;;;;0.30;0.20;;;;;;;7.17;72.80;95277.06;5130952;27;20466;-54
2024/01/09 08:56:14;;;;;;;0.40;0.20;;;;;;;7.31;69.79;95302.78;5131454;27;20438;-54
2024/01/09 08:58:42;;;;;;;0.30;0.20;;;;;;;7.07;70.21;95306.75;5132416;27;20435;-54
2024/01/09 09:01:11;;;;;;;0.40;0.30;;;;;;;6.40;70.06;95250.91;5132640;27;20431;-55
2024/01/09 09:03:41;;;;;;;0.30;0.20;;;;;;;6.74;70.18;95283.19;5132363;27;20521;-55
2024/01/09 09:06:10;;;;;;;0.40;0.30;;;;;;;6.93;69.88;95314.22;5132884;27;20834;-55
2024/01/09 09:08:39;;;;;;;0.30;0.20;;;;;;;6.95;70.64;95319.28;5132717;27;20438;-55
2024/01/09 09:11:08;;;;;;;0.40;0.20;;;;;;;7.29;69.87;95322.53;5131836;27;20445;-54
2024/01/09 09:13:37;;;;;;;0.30;0.20;;;;;;;7.40;68.35;95330.31;5132278;27;20439;-55
2024/01/09 09:16:06;;;;;;;0.40;0.30;;;;;;;7.26;69.46;95325.69;5131826;27;20438;-54
2024/01/09 09:18:34;;;;;;;0.30;0.23;;;;;;;7.15;69.87;95330.03;5132336;27;20434;-54
2024/01/09 09:21:05;;;;;;;0.30;0.20;;;;;;;7.34;67.70;95322.56;5132721;27;20529;-54
2024/01/09 09:23:34;;;;;;;0.37;0.30;;;;;;;6.37;68.47;95148.75;5132583;27;20445;-55
2024/01/09 09:26:03;;;;;;;0.87;0.33;;;;;;;7.41;68.37;95316.06;5128210;27;20602;-54
2024/01/09 09:28:32;;;;;;;0.47;0.47;;;;;;;6.47;66.60;95191.00;5132467;28;20435;-54
2024/01/09 09:31:17;;;;;;;0.63;0.53;;;;;;;7.60;67.96;95314.69;5131559;27;20934;-55
2024/01/09 09:33:46;;;;;;;0.40;0.30;;;;;;;7.54;67.42;95307.75;5132865;28;20882;-55
2024/01/09 09:36:16;;;;;;;0.40;0.30;;;;;;;7.38;65.62;95310.50;5131719;28;20465;-55
2024/01/09 09:38:45;;;;;;;0.30;0.20;;;;;;;7.68;68.62;95303.69;5119956;28;20668;-55
2024/01/09 09:41:16;;;;;;;0.60;0.27;;;;;;;7.69;67.34;95307.88;5102935;28;20439;-55
2024/01/09 09:43:50;;;;;;;0.50;0.30;;;;;;;7.48;65.99;95300.84;5111946;28;20439;-55
2024/01/09 09:46:25;;;;;;;0.30;0.20;;;;;;;7.62;68.98;95304.66;5125592;28;20933;-55
2024/01/09 09:48:54;;;;;;;0.30;0.20;;;;;;;7.07;65.72;95272.50;5128805;27;20911;-55
2024/01/09 09:51:26;;;;;;;1.47;0.20;;;;;;;7.55;71.23;95296.16;5126874;28;20466;-55
2024/01/09 09:53:56;;;;;;;0.33;0.23;;;;;;;7.07;65.49;95298.06;5123428;28;20475;-55
2024/01/09 09:56:26;;;;;;;0.30;0.30;;;;;;;7.47;67.71;95296.63;5118764;28;20433;-56
2024/01/09 09:58:55;;;;;;;0.50;0.30;;;;;;;7.28;68.35;95255.84;5125693;27;20473;-55
2024/01/09 10:01:25;;;;;;;0.30;0.30;;;;;;;7.31;66.32;95288.81;5131596;27;20438;-55
2024/01/09 10:04:02;;;;;;;0.30;0.20;;;;;;;7.51;68.58;95281.88;5129605;27;20871;-56
2024/01/09 10:06:35;;;;;;;0.50;0.30;;;;;;;7.76;65.71;95283.94;5131961;28;20952;-55
2024/01/09 10:09:10;;;;;;;0.30;0.20;;;;;;;7.13;65.67;95208.28;5121344;28;20466;-55
2024/01/09 10:11:38;;;;;;;0.70;0.50;;;;;;;7.71;65.56;95283.91;5116263;28;20470;-55
2024/01/09 10:14:09;;;;;;;0.40;0.30;;;;;;;7.56;66.45;95284.56;5131572;28;20449;-54
2024/01/09 10:16:50;;;;;;;0.50;0.40;;;;;;;7.79;66.52;95280.81;5130319;28;20495;-55
2024/01/09 10:19:19;;;;;;;0.77;0.37;;;;;;;7.62;66.08;95277.50;5131509;28;20494;-55
2024/01/09 10:21:50;;;;;;;0.30;0.30;;;;;;;7.56;66.17;95279.28;5132138;28;20450;-55
2024/01/09 10:24:19;;;;;;;0.37;0.30;;;;;;;7.49;64.83;95283.97;5131265;27;20442;-54
2024/01/09 10:26:53;;;;;;;0.50;0.50;;;;;;;7.34;65.49;95290.94;5131460;27;20462;-55
2024/01/09 10:29:23;;;;;;;3.27;0.83;;;;;;;7.43;65.02;95285.00;5125706;28;20449;-55
2024/01/09 10:31:52;;;;;;;0.70;0.67;;;;;;;7.69;64.92;95285.97;5130374;28;20434;-55
2024/01/09 10:34:20;;;;;;;0.97;0.87;;;;;;;7.94;65.67;95286.22;5131237;27;20435;-55
2024/01/09 10:36:53;;;;;;;2.70;0.30;;;;;;;8.15;64.66;95284.47;5132280;27;20495;-55
2024/01/09 10:39:22;;;;;;;0.60;0.53;;;;;;;8.18;65.64;95286.63;5135902;27;20442;-55
2024/01/09 10:41:50;;;;;;;0.40;0.20;;;;;;;8.12;63.77;95291.06;5135590;27;20434;-55
2024/01/09 10:44:20;;;;;;;0.40;0.40;;;;;;;8.25;63.79;95282.69;5135553;27;20533;-55
2024/01/09 10:46:50;;;;;;;0.30;0.20;;;;;;;7.92;63.31;95272.44;5135269;27;20926;-55
2024/01/09 10:49:20;;;;;;;0.40;0.30;;;;;;;8.12;64.70;95275.22;5124371;27;20435;-55
2024/01/09 10:51:54;;;;;;;0.80;0.40;;;;;;;8.20;63.27;95282.66;5133562;27;20923;-55
2024/01/09 10:54:23;;;;;;;0.50;0.30;;;;;;;8.06;63.70;95283.38;5134901;27;20442;-55
2024/01/09 10:56:53;;;;;;;0.53;0.50;;;;;;;8.14;67.05;95277.63;5135179;27;20813;-55
2024/01/09 10:59:23;;;;;;;0.40;0.30;;;;;;;8.41;67.36;95286.25;5135233;27;20462;-55
2024/01/09 11:01:52;;;;;;;0.60;0.40;;;;;;;7.79;64.15;95280.00;5134699;27;20440;-55
2024/01/09 11:04:21;;;;;;;0.30;0.30;;;;;;;7.92;64.13;95283.00;5134750;27;20431;-55
2024/01/09 11:06:53;;;;;;;3.70;0.30;;;;;;;7.99;70.64;95280.16;5134142;27;20434;-54
2024/01/09 11:09:23;;;;;;;0.40;0.30;;;;;;;7.72;67.11;95279.41;5134870;27;20492;-54
2024/01/09 11:11:53;;;;;;;0.83;0.40;;;;;;;7.43;65.70;95271.00;5135049;27;20438;-55
2024/01/09 11:14:23;;;;;;;0.40;0.40;;;;;;;7.60;65.63;95298.84;5134405;27;20474;-54
2024/01/09 11:16:53;;;;;;;0.50;0.50;;;;;;;7.69;64.31;95292.06;5134820;27;20442;-54
2024/01/09 11:19:22;;;;;;;0.40;0.30;;;;;;;7.46;64.13;95281.06;5134008;27;20925;-54
2024/01/09 11:21:52;;;;;;;0.40;0.20;;;;;;;7.70;66.77;95290.22;5134501;27;20468;-54
2024/01/09 11:24:25;;;;;;;0.30;0.20;;;;;;;7.98;64.36;95286.47;5134231;27;20510;-54
2024/01/09 11:27:12;;;;;;;0.50;0.30;;;;;;;7.84;64.79;95293.25;5134546;27;20438;-54
2024/01/09 11:29:51;;;;;;;1.03;0.67;;;;;;;7.59;66.62;95291.97;5108367;27;20434;-54
2024/01/09 11:32:25;;;;;;;0.40;0.30;;;;;;;7.48;67.60;95294.78;5133914;27;20438;-55
2024/01/09 11:35:10;;;;;;;0.50;0.37;;;;;;;7.26;66.81;95297.47;5134941;27;20801;-55
2024/01/09 11:37:42;;;;;;;0.90;0.77;;;;;;;7.57;66.81;95288.78;5134357;27;20438;-55
2024/01/09 11:40:12;;;;;;;0.40;0.30;;;;;;;7.59;65.33;95307.00;5133779;27;20449;-56
2024/01/09 11:42:44;;;;;;;0.30;0.20;;;;;;;7.50;62.77;95305.88;5133506;27;20542;-55
2024/01/09 11:45:20;;;;;;;0.40;0.20;;;;;;;6.94;64.29;95278.16;5133124;27;20435;-54
2024/01/09 11:47:48;;;;;;;0.40;0.30;;;;;;;7.08;62.26;95304.94;5133425;27;20837;-56
2024/01/09 11:50:18;;;;;;;0.60;0.60;;;;;;;7.13;64.92;95300.50;5133716;27;20535;-55